Time;durP1;ratioP1;P1;durP2;ratioP2;P2;SDS_P1;SDS_P2;PMS_P1;PMS_P2;Temp;Humidity;BMP_temperature;BMP_pressure;BME280_temperature;BME280_humidity;BME280_pressure;Samples;Min_cycle;Max_cycle;Signal;HPM_P1;HPM_P2
2021/10/26 00:01:59;;;;;;;9.35;4.80;;;9.20;97.70;;;;;;5051632;28;20451;-75
2021/10/26 00:04:26;;;;;;;10.23;5.22;;;9.20;97.90;;;;;;5051695;28;20076;-78
2021/10/26 00:06:54;;;;;;;7.95;5.05;;;9.20;97.90;;;;;;5051952;28;20473;-80
2021/10/26 00:09:22;;;;;;;8.43;4.90;;;9.10;98.10;;;;;;5051527;28;20143;-76
2021/10/26 00:11:49;;;;;;;9.60;5.22;;;9.20;98.20;;;;;;5051694;28;20088;-78
2021/10/26 00:14:16;;;;;;;9.38;5.55;;;9.10;98.20;;;;;;5051700;28;20140;-78
2021/10/26 00:16:43;;;;;;;8.38;5.22;;;9.10;98.20;;;;;;5051817;28;20132;-77
2021/10/26 00:19:11;;;;;;;8.98;5.60;;;9.10;98.30;;;;;;5051800;28;20133;-78
2021/10/26 00:21:38;;;;;;;9.10;5.57;;;9.10;98.40;;;;;;5052057;28;20140;-78
2021/10/26 00:24:07;;;;;;;8.32;5.05;;;9.00;98.40;;;;;;5051727;28;20557;-77
2021/10/26 00:26:34;;;;;;;8.25;5.18;;;9.00;98.60;;;;;;5051635;28;20080;-78
2021/10/26 00:29:01;;;;;;;9.52;5.22;;;9.00;98.60;;;;;;5051639;28;20131;-78
2021/10/26 00:31:29;;;;;;;8.48;4.85;;;9.00;98.60;;;;;;5051669;28;20083;-77
2021/10/26 00:33:56;;;;;;;9.63;5.25;;;9.00;98.70;;;;;;5051384;28;20044;-77
2021/10/26 00:36:24;;;;;;;8.75;5.00;;;8.90;98.60;;;;;;5051504;28;20133;-80
2021/10/26 00:38:52;;;;;;;8.57;4.65;;;8.90;98.80;;;;;;5051685;28;20053;-79
2021/10/26 00:41:21;;;;;;;7.55;4.00;;;8.90;99.00;;;;;;5051718;28;20144;-78
2021/10/26 00:43:49;;;;;;;7.95;4.63;;;8.80;99.20;;;;;;5051677;28;20490;-79
2021/10/26 00:46:28;;;;;;;8.10;4.88;;;8.90;99.40;;;;;;5051354;28;20125;-79
2021/10/26 00:48:56;;;;;;;9.90;5.25;;;8.90;99.30;;;;;;5051447;28;20151;-80
2021/10/26 00:51:23;;;;;;;7.85;4.47;;;8.90;99.10;;;;;;5050910;28;20076;-81
2021/10/26 00:53:50;;;;;;;7.88;4.70;;;8.90;99.10;;;;;;5051664;28;20045;-78
2021/10/26 00:56:19;;;;;;;8.57;4.72;;;8.90;99.20;;;;;;5051368;28;20140;-80
2021/10/26 00:58:47;;;;;;;9.15;4.93;;;8.90;99.50;;;;;;5051532;28;20063;-79
2021/10/26 01:01:14;;;;;;;7.45;4.60;;;8.90;99.70;;;;;;5054008;28;20137;-79
2021/10/26 01:03:42;;;;;;;7.80;4.65;;;8.80;99.70;;;;;;5055101;28;20786;-79
2021/10/26 01:06:10;;;;;;;7.95;4.78;;;8.90;99.70;;;;;;5054698;28;20140;-80
2021/10/26 01:08:38;;;;;;;7.63;4.40;;;8.90;99.20;;;;;;5054774;28;20080;-79
2021/10/26 01:11:05;;;;;;;8.05;4.68;;;8.80;99.10;;;;;;5054955;28;20080;-79
2021/10/26 01:13:32;;;;;;;7.68;4.78;;;8.80;99.30;;;;;;5054549;28;20135;-78
2021/10/26 01:16:01;;;;;;;9.32;4.95;;;8.70;99.30;;;;;;5054857;28;20136;-77
2021/10/26 01:18:29;;;;;;;9.18;5.10;;;8.60;99.30;;;;;;5070978;28;20080;-78
2021/10/26 01:20:58;;;;;;;9.48;5.22;;;8.50;99.50;;;;;;5060616;28;20562;-77
2021/10/26 01:23:26;;;;;;;9.60;5.05;;;8.50;99.70;;;;;;5064313;28;20578;-79
2021/10/26 01:25:53;;;;;;;7.85;4.70;;;8.40;99.90;;;;;;5054731;28;20048;-81
2021/10/26 01:28:21;;;;;;;8.75;4.72;;;8.40;99.90;;;;;;5053735;28;20108;-79
2021/10/26 01:30:48;;;;;;;8.73;4.38;;;8.30;99.90;;;;;;5054669;28;20163;-78
2021/10/26 01:33:16;;;;;;;7.78;4.80;;;8.30;99.90;;;;;;5054820;28;20053;-78
2021/10/26 01:35:43;;;;;;;7.45;4.30;;;8.30;99.90;;;;;;5055119;28;20132;-80
2021/10/26 01:38:12;;;;;;;7.05;4.18;;;8.40;99.90;;;;;;5054059;28;20053;-78
2021/10/26 01:40:39;;;;;;;11.07;5.22;;;8.40;99.90;;;;;;5053781;28;20072;-79
2021/10/26 01:43:06;;;;;;;8.27;4.53;;;8.40;99.90;;;;;;5054412;28;20466;-79
2021/10/26 01:45:34;;;;;;;9.05;5.25;;;8.40;99.90;;;;;;5053791;28;20122;-78
2021/10/26 01:48:01;;;;;;;9.15;5.53;;;8.40;99.90;;;;;;5054094;28;20479;-76
2021/10/26 01:50:28;;;;;;;7.78;4.95;;;8.40;99.90;;;;;;5053767;28;20121;-75
2021/10/26 01:52:56;;;;;;;9.55;5.43;;;8.40;99.90;;;;;;5054074;28;20049;-76
2021/10/26 01:55:24;;;;;;;10.02;5.00;;;8.30;99.90;;;;;;5053747;28;20045;-77
2021/10/26 01:57:52;;;;;;;10.10;5.22;;;8.40;99.90;;;;;;5053893;28;20132;-78
2021/10/26 02:00:20;;;;;;;8.95;5.40;;;8.30;99.90;;;;;;5053834;28;20582;-78
2021/10/26 02:02:49;;;;;;;8.50;5.30;;;8.40;99.90;;;;;;5053558;28;20045;-77
2021/10/26 02:05:17;;;;;;;8.55;5.13;;;8.40;99.90;;;;;;5054100;28;20053;-79
2021/10/26 02:07:44;;;;;;;8.77;4.97;;;8.40;99.90;;;;;;5053592;28;20141;-79
2021/10/26 02:10:12;;;;;;;7.55;4.82;;;8.50;99.90;;;;;;5053605;28;20445;-79
2021/10/26 02:12:41;;;;;;;8.35;4.70;;;8.50;99.90;;;;;;5040000;28;20052;-79
2021/10/26 02:15:09;;;;;;;9.27;4.30;;;8.50;99.90;;;;;;5053734;28;20059;-79
2021/10/26 02:17:37;;;;;;;7.13;4.53;;;8.50;99.90;;;;;;5053167;28;20131;-78
2021/10/26 02:20:06;;;;;;;6.55;4.40;;;8.50;99.90;;;;;;5053562;28;20484;-78
2021/10/26 02:22:33;;;;;;;8.50;4.53;;;8.60;99.90;;;;;;5053691;28;20132;-77
2021/10/26 02:25:00;;;;;;;7.72;4.70;;;8.60;99.90;;;;;;5053225;28;20147;-79
2021/10/26 02:27:27;;;;;;;7.90;4.90;;;8.50;99.90;;;;;;5053067;28;20132;-77
2021/10/26 02:29:55;;;;;;;7.50;4.57;;;8.60;99.90;;;;;;5053174;28;20164;-80
2021/10/26 02:32:23;;;;;;;8.93;4.55;;;8.60;99.90;;;;;;5053265;28;20128;-79
2021/10/26 02:34:50;;;;;;;7.40;4.53;;;8.70;99.90;;;;;;5046693;28;20485;-79
2021/10/26 02:37:17;;;;;;;8.93;4.80;;;8.60;99.90;;;;;;5052959;28;20136;-80
2021/10/26 02:39:44;;;;;;;8.10;4.80;;;8.60;99.90;;;;;;5053142;28;20131;-78
2021/10/26 02:42:11;;;;;;;9.85;5.45;;;8.70;99.90;;;;;;5053148;28;20124;-77
2021/10/26 02:44:38;;;;;;;9.05;5.07;;;8.70;99.90;;;;;;5053027;28;20041;-77
2021/10/26 02:47:07;;;;;;;7.70;4.90;;;8.70;99.90;;;;;;5052761;28;20469;-77
2021/10/26 02:49:34;;;;;;;9.93;5.10;;;8.70;99.90;;;;;;5053255;28;20132;-77
2021/10/26 02:52:03;;;;;;;9.20;5.32;;;8.70;99.90;;;;;;5052862;28;20075;-77
2021/10/26 02:54:30;;;;;;;9.95;5.35;;;8.70;99.90;;;;;;5053271;28;20544;-76
2021/10/26 02:56:58;;;;;;;9.73;5.22;;;8.70;99.90;;;;;;5052814;28;20182;-78
2021/10/26 02:59:25;;;;;;;9.48;4.82;;;8.70;99.90;;;;;;5052905;28;20128;-79
2021/10/26 03:01:53;;;;;;;10.00;5.10;;;8.70;99.90;;;;;;5051803;28;20582;-78
2021/10/26 03:04:21;;;;;;;7.90;4.82;;;8.70;99.90;;;;;;5049964;28;20140;-78
2021/10/26 03:06:48;;;;;;;10.55;5.43;;;8.80;99.90;;;;;;5050118;28;20135;-79
2021/10/26 03:09:15;;;;;;;9.10;4.95;;;8.80;99.90;;;;;;5048164;28;20414;-77
2021/10/26 03:11:42;;;;;;;7.65;5.00;;;8.80;99.90;;;;;;5048832;28;20491;-77
2021/10/26 03:14:10;;;;;;;7.93;4.93;;;8.80;99.90;;;;;;5048843;28;20049;-76
2021/10/26 03:16:37;;;;;;;7.55;5.05;;;8.80;99.90;;;;;;5049044;28;20076;-80
2021/10/26 03:19:05;;;;;;;9.23;5.55;;;8.80;99.90;;;;;;5048790;28;20554;-79
2021/10/26 03:21:36;;;;;;;8.38;5.22;;;8.90;99.90;;;;;;5049110;28;20052;-78
2021/10/26 03:24:03;;;;;;;8.68;5.32;;;8.90;99.90;;;;;;5048459;28;20131;-78
2021/10/26 03:26:31;;;;;;;8.35;5.43;;;8.90;99.90;;;;;;5049217;28;20461;-78
2021/10/26 03:28:58;;;;;;;11.60;5.65;;;9.00;99.90;;;;;;5049086;28;20447;-79
2021/10/26 03:31:26;;;;;;;9.70;5.90;;;8.90;99.90;;;;;;5048759;28;20132;-78
2021/10/26 03:33:53;;;;;;;12.85;5.60;;;9.00;99.90;;;;;;5049029;28;20118;-79
2021/10/26 03:36:20;;;;;;;8.20;5.15;;;9.00;99.90;;;;;;5048709;28;20080;-79
2021/10/26 03:38:50;;;;;;;9.20;5.68;;;9.00;99.90;;;;;;5049338;28;20136;-79
2021/10/26 03:41:17;;;;;;;8.77;5.40;;;9.00;99.90;;;;;;5050352;28;20491;-79
2021/10/26 03:43:44;;;;;;;10.85;5.70;;;9.10;99.90;;;;;;5049446;28;20132;-80
2021/10/26 03:46:13;;;;;;;9.13;5.57;;;9.00;99.90;;;;;;5048560;28;20147;-76
2021/10/26 03:48:40;;;;;;;13.88;6.80;;;9.00;99.90;;;;;;5048934;28;20068;-80
2021/10/26 03:51:07;;;;;;;14.02;7.13;;;9.00;99.90;;;;;;5048519;28;20052;-80
2021/10/26 03:53:34;;;;;;;13.15;6.90;;;9.00;99.90;;;;;;5048712;28;20048;-78
2021/10/26 03:56:04;;;;;;;14.63;7.55;;;8.90;99.90;;;;;;5048638;28;20135;-80
2021/10/26 03:58:34;;;;;;;13.23;7.15;;;8.80;99.90;;;;;;5039668;28;20053;-79
2021/10/26 04:01:01;;;;;;;11.55;7.10;;;8.80;99.90;;;;;;5048910;28;20045;-81
2021/10/26 04:03:29;;;;;;;11.48;6.60;;;8.80;99.90;;;;;;5051694;28;20486;-78
2021/10/26 04:06:01;;;;;;;11.45;6.60;;;8.80;99.90;;;;;;5052151;28;20132;-78
2021/10/26 04:08:31;;;;;;;9.45;5.97;;;8.80;99.90;;;;;;5052042;28;20061;-76
2021/10/26 04:11:01;;;;;;;10.43;5.70;;;8.80;99.90;;;;;;5052047;28;20148;-76
2021/10/26 04:13:29;;;;;;;8.38;5.60;;;8.70;99.90;;;;;;5051442;28;20041;-79
2021/10/26 04:15:58;;;;;;;9.95;5.68;;;8.70;99.90;;;;;;5051494;28;20060;-76
2021/10/26 04:18:25;;;;;;;8.13;5.35;;;8.70;99.90;;;;;;5051769;28;20131;-79
2021/10/26 04:20:53;;;;;;;8.25;5.40;;;8.60;99.90;;;;;;5051674;28;20072;-79
2021/10/26 04:23:21;;;;;;;9.35;5.40;;;8.60;99.90;;;;;;5051511;28;20083;-78
2021/10/26 04:25:48;;;;;;;9.45;5.95;;;8.60;99.90;;;;;;5051504;28;20127;-77
2021/10/26 04:28:15;;;;;;;9.25;5.53;;;8.60;99.90;;;;;;5051346;28;20542;-78
2021/10/26 04:30:45;;;;;;;9.45;6.10;;;8.50;99.90;;;;;;5051343;28;20148;-76
2021/10/26 04:33:13;;;;;;;9.77;5.32;;;8.60;99.90;;;;;;5052370;28;20143;-78
2021/10/26 04:35:41;;;;;;;9.57;5.93;;;8.60;99.90;;;;;;5055970;28;20059;-79
2021/10/26 04:38:09;;;;;;;9.85;6.10;;;8.60;99.90;;;;;;5056264;28;20128;-76
2021/10/26 04:40:36;;;;;;;10.35;6.10;;;8.60;99.90;;;;;;5058016;28;20131;-79
2021/10/26 04:43:04;;;;;;;9.95;5.85;;;8.50;99.90;;;;;;5058204;28;20080;-80
2021/10/26 04:45:32;;;;;;;9.60;6.00;;;8.50;99.90;;;;;;5057653;28;20077;-78
2021/10/26 04:48:01;;;;;;;8.82;5.60;;;8.40;99.90;;;;;;5055966;28;20102;-76
2021/10/26 04:50:31;;;;;;;9.00;5.82;;;8.40;99.90;;;;;;5055233;28;20080;-78
2021/10/26 04:52:59;;;;;;;8.95;5.70;;;8.30;99.90;;;;;;5055267;28;20402;-80
2021/10/26 04:55:26;;;;;;;9.18;5.38;;;8.30;99.90;;;;;;5055584;28;20468;-78
2021/10/26 04:57:53;;;;;;;8.20;5.40;;;8.30;99.90;;;;;;5055505;28;20088;-78
2021/10/26 05:00:20;;;;;;;8.20;5.65;;;8.30;99.90;;;;;;5055676;28;20092;-79
2021/10/26 05:02:47;;;;;;;9.10;5.45;;;8.30;99.90;;;;;;5055617;28;20087;-77
2021/10/26 05:05:16;;;;;;;8.73;5.40;;;8.40;99.90;;;;;;5055522;28;20444;-76
2021/10/26 05:07:44;;;;;;;8.07;5.32;;;8.40;99.90;;;;;;5054932;28;20135;-78
2021/10/26 05:10:11;;;;;;;8.50;5.70;;;8.40;99.90;;;;;;5055338;28;20166;-78
2021/10/26 05:12:38;;;;;;;10.65;6.13;;;8.50;99.90;;;;;;5054717;28;20558;-80
2021/10/26 05:15:06;;;;;;;9.32;5.75;;;8.50;99.90;;;;;;5075329;28;20079;-77
2021/10/26 05:17:34;;;;;;;10.05;5.32;;;8.50;99.90;;;;;;5074922;28;20083;-78
2021/10/26 05:20:03;;;;;;;9.25;5.75;;;8.50;99.90;;;;;;5074858;28;20147;-77
2021/10/26 05:22:31;;;;;;;9.30;5.35;;;8.50;99.90;;;;;;5075348;28;20050;-78
2021/10/26 05:24:58;;;;;;;8.43;5.53;;;8.50;99.90;;;;;;5074873;28;20076;-77
2021/10/26 05:27:26;;;;;;;9.88;5.35;;;8.50;99.90;;;;;;5074674;28;20136;-78
2021/10/26 05:29:54;;;;;;;9.55;5.63;;;8.50;99.90;;;;;;5074948;28;20134;-78
2021/10/26 05:32:21;;;;;;;9.73;5.90;;;8.50;99.90;;;;;;5074843;28;20060;-79
2021/10/26 05:34:49;;;;;;;10.15;5.68;;;8.50;99.90;;;;;;5075205;28;20445;-79
2021/10/26 05:37:16;;;;;;;8.75;5.68;;;8.60;99.90;;;;;;5076890;28;20463;-75
2021/10/26 05:39:44;;;;;;;10.02;5.45;;;8.60;99.90;;;;;;5074325;28;20091;-76
2021/10/26 05:42:11;;;;;;;10.15;5.75;;;8.50;99.90;;;;;;5074496;28;20635;-79
2021/10/26 05:44:38;;;;;;;7.95;5.25;;;8.50;99.90;;;;;;5074552;28;20080;-80
2021/10/26 05:47:06;;;;;;;9.50;6.07;;;8.60;99.90;;;;;;5074086;28;20060;-79
2021/10/26 05:49:33;;;;;;;9.35;6.35;;;8.60;99.90;;;;;;5074676;28;20202;-78
2021/10/26 05:52:00;;;;;;;8.73;5.63;;;8.60;99.90;;;;;;5074522;28;20135;-79
2021/10/26 05:54:28;;;;;;;10.98;5.97;;;8.60;99.90;;;;;;5074403;28;20083;-78
2021/10/26 05:56:56;;;;;;;8.93;5.90;;;8.60;99.90;;;;;;5074392;28;20123;-78
2021/10/26 05:59:23;;;;;;;8.75;5.85;;;8.60;99.90;;;;;;5074388;28;20050;-78
2021/10/26 06:01:50;;;;;;;8.55;5.65;;;8.60;99.90;;;;;;5074386;28;20131;-79
2021/10/26 06:04:18;;;;;;;10.02;6.30;;;8.50;99.90;;;;;;5074479;28;20057;-77
2021/10/26 06:06:46;;;;;;;10.15;5.90;;;8.50;99.90;;;;;;5074204;28;20052;-77
2021/10/26 06:09:15;;;;;;;9.70;5.85;;;8.50;99.90;;;;;;5074073;28;20135;-79
2021/10/26 06:11:44;;;;;;;9.75;5.65;;;8.40;99.90;;;;;;5073950;28;20064;-78
2021/10/26 06:14:13;;;;;;;8.70;5.57;;;8.40;99.90;;;;;;5073916;28;20086;-77
2021/10/26 06:16:41;;;;;;;8.73;5.70;;;8.40;99.90;;;;;;5050491;28;20077;-76
2021/10/26 06:19:09;;;;;;;9.95;6.00;;;8.40;99.90;;;;;;5033994;28;20134;-78
2021/10/26 06:21:37;;;;;;;8.60;5.50;;;8.40;99.90;;;;;;5033732;28;20053;-76
2021/10/26 06:24:05;;;;;;;9.63;5.80;;;8.40;99.90;;;;;;5034062;28;20128;-78
2021/10/26 06:26:33;;;;;;;8.90;5.45;;;8.40;99.90;;;;;;5032449;28;20080;-78
2021/10/26 06:29:00;;;;;;;9.95;6.05;;;8.40;99.90;;;;;;5033275;28;20049;-76
2021/10/26 06:31:28;;;;;;;9.15;5.85;;;8.50;99.90;;;;;;5033589;28;20148;-77
2021/10/26 06:33:56;;;;;;;8.77;5.22;;;8.50;99.90;;;;;;5033723;28;20140;-80
2021/10/26 06:36:23;;;;;;;9.07;5.65;;;8.50;99.90;;;;;;5033691;28;20052;-80
2021/10/26 06:38:51;;;;;;;9.75;6.07;;;8.50;99.90;;;;;;5033547;28;20168;-77
2021/10/26 06:41:18;;;;;;;8.25;5.80;;;8.50;99.90;;;;;;5033373;28;20487;-79
2021/10/26 06:43:45;;;;;;;8.35;5.70;;;8.60;99.90;;;;;;5033158;28;20467;-78
2021/10/26 06:46:12;;;;;;;8.40;5.63;;;8.60;99.90;;;;;;5033428;28;20099;-80
2021/10/26 06:48:41;;;;;;;9.07;5.53;;;8.60;99.90;;;;;;5033590;28;20085;-77
2021/10/26 06:51:08;;;;;;;8.75;5.90;;;8.60;99.90;;;;;;5033513;28;20607;-80
2021/10/26 06:53:38;;;;;;;10.15;5.97;;;8.60;99.90;;;;;;5033440;28;20087;-79
2021/10/26 06:56:11;;;;;;;9.88;5.63;;;8.60;99.90;;;;;;5033397;28;20053;-78
2021/10/26 06:58:38;;;;;;;8.38;5.50;;;8.70;99.90;;;;;;5032518;28;20446;-79
2021/10/26 07:01:07;;;;;;;8.68;5.50;;;8.70;99.90;;;;;;5033687;28;20061;-77
2021/10/26 07:03:36;;;;;;;9.02;5.88;;;8.80;99.90;;;;;;5033730;28;20128;-76
2021/10/26 07:06:05;;;;;;;9.25;6.45;;;8.80;99.90;;;;;;5033562;28;20068;-74
2021/10/26 07:08:32;;;;;;;85.60;13.57;;;8.80;99.90;;;;;;5033244;28;20091;-79
2021/10/26 07:11:00;;;;;;;77.40;14.27;;;8.90;99.90;;;;;;5033322;28;20049;-76
2021/10/26 07:13:28;;;;;;;33.22;10.38;;;8.90;99.90;;;;;;5033017;28;20229;-77
2021/10/26 07:15:55;;;;;;;25.00;8.30;;;8.90;99.90;;;;;;5033216;28;20041;-79
2021/10/26 07:18:22;;;;;;;22.27;7.47;;;8.90;99.90;;;;;;5032747;28;20136;-79
2021/10/26 07:20:49;;;;;;;20.08;8.02;;;9.00;99.90;;;;;;5033434;28;20128;-78
2021/10/26 07:23:17;;;;;;;15.27;7.07;;;9.00;99.90;;;;;;5033602;28;20076;-80
2021/10/26 07:25:44;;;;;;;54.33;11.43;;;9.00;99.90;;;;;;5033216;28;20160;-79
2021/10/26 07:28:12;;;;;;;54.90;11.02;;;9.00;99.90;;;;;;5032859;28;20132;-77
2021/10/26 07:30:43;;;;;;;53.28;12.20;;;9.10;99.90;;;;;;5034796;28;20045;-79
2021/10/26 07:33:18;;;;;;;38.00;11.20;;;9.10;99.90;;;;;;5033108;28;20052;-80
2021/10/26 07:35:47;;;;;;;41.75;9.95;;;9.20;99.90;;;;;;5032438;28;20068;-78
2021/10/26 07:38:24;;;;;;;30.08;9.82;;;9.20;99.90;;;;;;5032801;28;20124;-79
2021/10/26 07:40:52;;;;;;;14.85;7.60;;;9.30;99.90;;;;;;5032927;28;20095;-78
2021/10/26 07:43:20;;;;;;;17.02;8.20;;;9.30;99.90;;;;;;5032655;28;20125;-77
2021/10/26 07:45:48;;;;;;;18.05;9.30;;;9.30;99.90;;;;;;5032897;28;20080;-79
2021/10/26 07:48:15;;;;;;;16.70;10.18;;;9.30;99.90;;;;;;5032397;28;20161;-78
2021/10/26 07:50:43;;;;;;;14.40;8.85;;;9.30;99.90;;;;;;5032520;28;20140;-79
2021/10/26 07:53:10;;;;;;;13.43;8.07;;;9.40;99.90;;;;;;5032444;28;20049;-79
2021/10/26 07:55:38;;;;;;;14.73;8.55;;;9.40;99.90;;;;;;5032094;28;20473;-78
2021/10/26 07:58:07;;;;;;;11.70;7.65;;;9.50;99.90;;;;;;5031942;28;20052;-78
2021/10/26 08:00:34;;;;;;;10.27;6.55;;;9.40;99.90;;;;;;5031882;28;20076;-78
2021/10/26 08:03:01;;;;;;;10.32;6.63;;;9.50;99.90;;;;;;5032629;28;20077;-78
2021/10/26 08:05:28;;;;;;;10.00;6.45;;;9.50;99.90;;;;;;5032363;28;20128;-78
2021/10/26 08:07:57;;;;;;;10.80;6.78;;;9.50;99.90;;;;;;5032493;28;20062;-78
2021/10/26 08:10:24;;;;;;;12.73;8.38;;;9.50;99.90;;;;;;5035346;28;20053;-78
2021/10/26 08:12:51;;;;;;;14.73;8.15;;;9.60;99.90;;;;;;5036676;28;20545;-79
2021/10/26 08:15:20;;;;;;;13.38;8.00;;;9.60;99.90;;;;;;5036750;28;20045;-79
2021/10/26 08:17:47;;;;;;;13.32;7.30;;;9.60;99.90;;;;;;5036112;28;20050;-80
2021/10/26 08:20:14;;;;;;;14.50;7.95;;;9.60;99.90;;;;;;5036406;28;20132;-77
2021/10/26 08:22:43;;;;;;;17.48;8.00;;;9.70;99.90;;;;;;5036246;28;20363;-79
2021/10/26 08:25:14;;;;;;;12.57;7.68;;;9.70;99.90;;;;;;5036244;28;20446;-77
2021/10/26 08:27:41;;;;;;;29.98;8.98;;;9.80;99.90;;;;;;5036101;28;20046;-78
2021/10/26 08:30:14;;;;;;;16.65;8.15;;;9.80;99.90;;;;;;5036225;28;20045;-78
2021/10/26 08:32:54;;;;;;;11.77;7.32;;;9.80;99.90;;;;;;5035919;28;20054;-78
2021/10/26 08:35:25;;;;;;;11.98;7.25;;;9.80;99.90;;;;;;5035984;28;20100;-79
2021/10/26 08:37:55;;;;;;;19.75;8.50;;;9.80;99.90;;;;;;5035940;28;20128;-80
2021/10/26 08:40:25;;;;;;;13.88;7.57;;;9.80;99.90;;;;;;5035871;28;20558;-79
2021/10/26 08:42:54;;;;;;;14.30;7.55;;;9.80;99.90;;;;;;5036047;28;20048;-79
2021/10/26 08:45:23;;;;;;;17.77;8.48;;;9.80;99.90;;;;;;5035672;28;20414;-79
2021/10/26 08:47:52;;;;;;;14.13;8.38;;;9.90;99.90;;;;;;5036057;28;20080;-77
2021/10/26 08:50:20;;;;;;;20.95;8.70;;;9.90;99.90;;;;;;5035367;28;20050;-80
2021/10/26 08:52:49;;;;;;;17.95;8.80;;;10.00;99.90;;;;;;5035852;28;20060;-77
2021/10/26 08:55:17;;;;;;;13.30;8.13;;;10.00;99.90;;;;;;5035687;28;20045;-80
2021/10/26 08:57:46;;;;;;;11.90;7.90;;;10.00;99.90;;;;;;5038023;28;20049;-79
2021/10/26 09:00:17;;;;;;;11.45;7.40;;;10.10;99.90;;;;;;5053974;28;20578;-77
2021/10/26 09:02:47;;;;;;;13.05;8.27;;;10.20;99.90;;;;;;5055251;28;20091;-78
2021/10/26 09:05:19;;;;;;;12.35;8.07;;;10.30;99.90;;;;;;5055291;28;20067;-81
2021/10/26 09:08:07;;;;;;;19.35;8.57;;;10.50;99.90;;;;;;5055257;28;20473;-79
2021/10/26 09:10:37;;;;;;;16.45;7.88;;;10.60;99.90;;;;;;5055226;28;20108;-80
2021/10/26 09:18:36;;;;;;;41.30;10.32;;;10.80;99.90;;;;;;5055116;28;20631;-78
2021/10/26 09:21:05;;;;;;;26.98;9.68;;;10.90;99.90;;;;;;5054420;28;20477;-79
2021/10/26 09:23:32;;;;;;;23.65;10.25;;;11.00;99.90;;;;;;5054843;28;20051;-80
2021/10/26 09:26:01;;;;;;;15.32;9.65;;;11.10;99.90;;;;;;5054804;28;20098;-81
2021/10/26 09:28:30;;;;;;;12.10;7.88;;;11.20;99.90;;;;;;5054709;28;20141;-75
2021/10/26 09:31:06;;;;;;;12.48;7.60;;;11.40;99.90;;;;;;5054312;28;20073;-76
2021/10/26 09:33:36;;;;;;;11.35;7.85;;;11.50;99.90;;;;;;5054122;28;20056;-77
2021/10/26 09:36:26;;;;;;;10.57;6.85;;;11.60;99.90;;;;;;5054097;28;20558;-78
2021/10/26 09:39:09;;;;;;;12.05;7.30;;;11.70;99.90;;;;;;5056095;28;20120;-78
2021/10/26 09:41:38;;;;;;;13.60;7.03;;;11.80;99.90;;;;;;5054147;28;20049;-78
2021/10/26 09:44:11;;;;;;;12.90;6.82;;;11.90;99.90;;;;;;5051312;28;20045;-79
2021/10/26 09:46:40;;;;;;;12.65;7.38;;;12.10;99.90;;;;;;5051732;28;20136;-78
2021/10/26 09:49:22;;;;;;;12.93;7.35;;;12.20;99.90;;;;;;5051469;28;20072;-79
2021/10/26 09:51:53;;;;;;;10.75;7.82;;;12.30;99.90;;;;;;5053108;28;20097;-78
2021/10/26 09:54:21;;;;;;;15.15;7.78;;;12.40;99.90;;;;;;5052327;28;20132;-79
2021/10/26 09:57:13;;;;;;;17.40;8.20;;;12.50;99.90;;;;;;5053086;28;20080;-77
2021/10/26 09:59:48;;;;;;;12.15;8.20;;;12.60;99.90;;;;;;5038118;28;20041;-81
2021/10/26 10:02:22;;;;;;;14.05;7.85;;;12.70;99.90;;;;;;5052607;28;20135;-76
2021/10/26 10:04:50;;;;;;;10.98;7.43;;;12.70;99.90;;;;;;5051507;28;20060;-79
2021/10/26 10:07:28;;;;;;;12.30;7.50;;;12.80;99.90;;;;;;5050781;28;20088;-79
2021/10/26 10:09:57;;;;;;;12.18;7.85;;;12.90;99.90;;;;;;5051188;28;20053;-78
2021/10/26 10:12:26;;;;;;;10.43;7.18;;;12.90;99.90;;;;;;5052039;28;20883;-76
2021/10/26 10:14:55;;;;;;;12.90;7.47;;;13.00;99.90;;;;;;5052047;28;20080;-78
2021/10/26 10:17:25;;;;;;;12.63;7.50;;;13.00;99.90;;;;;;5050355;28;20127;-77
2021/10/26 10:19:53;;;;;;;10.73;7.30;;;13.10;99.90;;;;;;5049984;28;20041;-78
2021/10/26 10:22:27;;;;;;;12.35;7.40;;;13.20;99.90;;;;;;5050580;28;20088;-78
2021/10/26 10:24:59;;;;;;;11.32;7.03;;;13.20;99.90;;;;;;5050809;28;20098;-78
2021/10/26 10:27:29;;;;;;;12.23;6.25;;;13.30;99.90;;;;;;5050956;28;20486;-78
2021/10/26 10:29:58;;;;;;;10.45;6.13;;;13.40;99.90;;;;;;5050266;28;20107;-79
2021/10/26 10:32:28;;;;;;;9.55;5.43;;;13.40;99.90;;;;;;5049185;28;20060;-79
2021/10/26 10:34:58;;;;;;;10.82;5.15;;;13.40;99.90;;;;;;5050436;28;20040;-79
2021/10/26 10:37:29;;;;;;;9.05;5.00;;;13.50;99.90;;;;;;5050789;28;20088;-78
2021/10/26 10:39:58;;;;;;;9.13;4.75;;;13.60;99.90;;;;;;5050630;28;20052;-78
2021/10/26 10:42:26;;;;;;;8.48;4.25;;;13.60;99.90;;;;;;5050931;28;20069;-78
2021/10/26 10:44:56;;;;;;;7.93;4.32;;;13.70;99.90;;;;;;5049802;28;20117;-78
2021/10/26 10:47:40;;;;;;;8.57;4.18;;;13.80;99.90;;;;;;5050171;28;20116;-78
2021/10/26 10:50:37;;;;;;;10.35;4.40;;;13.80;99.90;;;;;;5050470;28;20084;-77
2021/10/26 10:53:16;;;;;;;7.85;4.20;;;13.90;99.90;;;;;;5038558;28;20441;-79
2021/10/26 10:55:49;;;;;;;7.60;4.05;;;14.00;99.80;;;;;;5050034;28;20061;-77
2021/10/26 10:58:40;;;;;;;7.80;4.15;;;14.00;99.90;;;;;;5049057;28;20498;-77
2021/10/26 11:01:32;;;;;;;8.38;3.75;;;14.00;99.40;;;;;;5049177;28;20456;-79
2021/10/26 11:04:03;;;;;;;9.70;3.95;;;14.10;99.50;;;;;;5049657;28;20487;-78
2021/10/26 11:06:59;;;;;;;6.97;3.38;;;14.10;99.10;;;;;;5048906;28;20059;-79
2021/10/26 11:09:45;;;;;;;6.30;3.00;;;14.10;99.00;;;;;;5013339;28;20056;-77
2021/10/26 11:12:17;;;;;;;7.18;3.17;;;14.20;98.90;;;;;;5038211;28;20140;-75
2021/10/26 11:14:55;;;;;;;5.85;3.28;;;14.20;98.70;;;;;;5048997;28;20060;-77
2021/10/26 11:18:00;;;;;;;6.88;3.40;;;14.20;98.60;;;;;;5049673;28;20045;-79
2021/10/26 11:20:52;;;;;;;5.60;3.20;;;14.30;98.50;;;;;;5051026;28;20045;-79
2021/10/26 11:23:42;;;;;;;5.07;3.33;;;14.40;98.00;;;;;;5031428;28;20053;-80
2021/10/26 11:26:18;;;;;;;6.80;2.80;;;14.40;98.20;;;;;;5032766;28;20132;-78
2021/10/26 11:28:52;;;;;;;7.88;3.30;;;14.50;98.20;;;;;;5046131;28;20127;-81
2021/10/26 11:31:25;;;;;;;7.28;3.45;;;14.70;98.10;;;;;;5050003;28;20096;-78
2021/10/26 11:34:02;;;;;;;6.38;3.00;;;14.70;98.10;;;;;;5050158;28;20088;-78
2021/10/26 11:36:33;;;;;;;5.13;2.65;;;14.80;97.50;;;;;;5050131;28;20080;-77
2021/10/26 11:39:07;;;;;;;6.28;2.90;;;14.80;97.70;;;;;;5048398;28;20057;-78
2021/10/26 11:41:39;;;;;;;6.88;3.08;;;15.00;97.70;;;;;;5048901;28;20076;-77
2021/10/26 11:44:08;;;;;;;6.78;3.53;;;15.10;97.50;;;;;;5048651;28;20136;-76
2021/10/26 11:46:39;;;;;;;5.68;2.83;;;15.20;96.60;;;;;;5048748;28;20107;-78
2021/10/26 11:49:09;;;;;;;6.30;2.92;;;15.20;96.50;;;;;;5048433;28;20049;-78
2021/10/26 11:51:38;;;;;;;8.52;2.80;;;15.30;96.30;;;;;;5048559;28;20057;-76
2021/10/26 11:54:09;;;;;;;5.38;2.45;;;15.30;96.20;;;;;;5048494;28;20131;-78
2021/10/26 11:56:40;;;;;;;6.28;2.95;;;15.40;96.00;;;;;;5048503;28;20155;-79
2021/10/26 11:59:13;;;;;;;4.80;2.28;;;15.50;96.10;;;;;;5049340;28;20081;-78
2021/10/26 12:01:51;;;;;;;5.93;2.72;;;15.70;95.90;;;;;;5048160;28;20068;-79
2021/10/26 12:04:25;;;;;;;4.63;2.70;;;15.90;95.60;;;;;;5048577;28;20379;-77
2021/10/26 12:06:56;;;;;;;5.20;2.70;;;15.90;94.80;;;;;;5048446;28;20387;-76
2021/10/26 12:09:24;;;;;;;5.53;2.63;;;15.90;94.60;;;;;;5048728;28;20067;-78
2021/10/26 12:11:56;;;;;;;5.60;2.50;;;15.80;94.40;;;;;;5048820;28;20467;-78
2021/10/26 12:14:29;;;;;;;5.70;2.38;;;15.80;94.60;;;;;;5048648;28;20049;-79
2021/10/26 12:17:13;;;;;;;6.40;2.70;;;15.70;95.00;;;;;;5048892;28;20159;-76
2021/10/26 12:19:46;;;;;;;5.78;2.90;;;15.70;94.40;;;;;;5048345;28;20041;-77
2021/10/26 12:22:17;;;;;;;5.18;2.25;;;15.60;94.70;;;;;;5048626;28;20136;-76
2021/10/26 12:24:50;;;;;;;4.55;2.15;;;15.60;95.00;;;;;;5048512;28;20436;-79
2021/10/26 12:27:27;;;;;;;5.88;2.70;;;15.50;95.00;;;;;;5048330;28;20152;-78
2021/10/26 12:29:54;;;;;;;6.38;2.88;;;15.50;95.00;;;;;;5048677;28;20139;-78
2021/10/26 12:32:22;;;;;;;4.47;2.00;;;15.50;95.10;;;;;;5048076;28;20127;-77
2021/10/26 12:34:50;;;;;;;7.00;2.38;;;15.50;95.10;;;;;;5047989;28;20127;-80
2021/10/26 12:37:22;;;;;;;6.70;2.50;;;15.50;95.00;;;;;;5048801;28;20136;-78
2021/10/26 12:39:52;;;;;;;5.85;2.28;;;15.50;94.90;;;;;;5048456;28;20112;-79
2021/10/26 12:42:37;;;;;;;5.28;2.45;;;15.60;94.90;;;;;;5048349;28;20052;-77
2021/10/26 12:45:08;;;;;;;5.72;2.38;;;15.60;94.80;;;;;;5047758;28;20150;-79
2021/10/26 12:47:56;;;;;;;6.78;2.20;;;15.60;94.70;;;;;;5048150;28;20099;-78
2021/10/26 12:50:44;;;;;;;5.60;2.17;;;15.70;94.40;;;;;;5048859;28;20080;-78
2021/10/26 12:53:34;;;;;;;5.18;2.10;;;15.80;94.50;;;;;;5048128;28;20491;-77
2021/10/26 12:56:05;;;;;;;5.35;2.30;;;15.90;94.60;;;;;;5048122;28;20060;-78
2021/10/26 12:58:44;;;;;;;4.78;2.10;;;16.10;94.40;;;;;;5050517;28;20128;-77
2021/10/26 13:01:25;;;;;;;6.75;2.00;;;16.30;93.90;;;;;;5053045;28;20083;-78
2021/10/26 13:04:07;;;;;;;5.95;1.90;;;16.50;93.80;;;;;;5052328;28;20075;-77
2021/10/26 13:06:38;;;;;;;5.20;2.30;;;16.70;93.70;;;;;;5052089;28;20376;-78
2021/10/26 13:09:08;;;;;;;4.05;2.00;;;16.70;92.80;;;;;;5051822;28;20506;-79
2021/10/26 13:11:37;;;;;;;5.72;2.15;;;16.70;92.60;;;;;;5051770;28;20049;-78